Time;durP1;ratioP1;P1;durP2;ratioP2;P2;SDS_P1;SDS_P2;PMS_P1;PMS_P2;Temp;Humidity;BMP_temperature;BMP_pressure;BME280_temperature;BME280_humidity;BME280_pressure;Samples;Min_cycle;Max_cycle;Signal;HPM_P1;HPM_P2
2022/05/11 00:00:48;;;;;;;14.23;8.63;;;;;;;12.91;100.00;101241.03;4839336;29;20404;-76
2022/05/11 00:03:17;;;;;;;12.40;7.78;;;;;;;12.90;100.00;101233.97;4850772;29;20046;-77
2022/05/11 00:05:45;;;;;;;14.85;7.88;;;;;;;12.91;100.00;101216.31;4837184;29;20045;-76
2022/05/11 00:08:14;;;;;;;12.23;8.93;;;;;;;12.87;100.00;101211.06;4802408;29;20266;-77
2022/05/11 00:10:42;;;;;;;10.95;7.80;;;;;;;12.86;100.00;101211.06;4842039;29;20048;-78
2022/05/11 00:13:11;;;;;;;16.95;8.73;;;;;;;12.84;100.00;101215.47;4837771;29;20042;-77
2022/05/11 00:15:40;;;;;;;14.88;8.45;;;;;;;12.82;100.00;101233.97;4853919;29;20052;-77
2022/05/11 00:18:10;;;;;;;13.52;8.20;;;;;;;12.82;100.00;101230.47;4837878;29;20402;-77
2022/05/11 00:20:39;;;;;;;13.57;8.37;;;;;;;12.82;100.00;101215.47;4857107;29;20045;-77
2022/05/11 00:23:07;;;;;;;13.13;8.57;;;;;;;12.83;100.00;101214.56;4822643;29;20045;-77
2022/05/11 00:25:36;;;;;;;13.40;7.93;;;;;;;12.84;100.00;101204.88;4835621;29;20046;-78
2022/05/11 00:28:04;;;;;;;11.20;8.05;;;;;;;12.84;100.00;101204.88;4814830;29;20059;-77
2022/05/11 00:30:33;;;;;;;12.95;8.07;;;;;;;12.83;100.00;101206.63;4852956;29;20060;-78
2022/05/11 00:33:02;;;;;;;13.87;8.57;;;;;;;12.83;100.00;101192.53;4837472;29;20045;-77
2022/05/11 00:35:33;;;;;;;12.00;8.27;;;;;;;12.83;100.00;101190.75;4837158;29;20048;-78
2022/05/11 00:38:03;;;;;;;11.63;7.78;;;;;;;12.84;100.00;101187.25;4868724;29;20049;-78
2022/05/11 00:40:38;;;;;;;10.45;8.02;;;;;;;12.83;100.00;101193.41;4839480;29;20348;-78
2022/05/11 00:43:07;;;;;;;11.80;8.30;;;;;;;12.84;100.00;101195.19;4849792;29;20056;-78
2022/05/11 00:45:39;;;;;;;11.02;7.75;;;;;;;12.84;100.00;101184.59;4863952;29;20407;-77
2022/05/11 00:50:59;;;;;;;13.05;7.82;;;;;;;12.86;100.00;101188.13;4854270;29;20076;-78
2022/05/11 00:53:28;;;;;;;10.73;7.63;;;;;;;12.87;100.00;101191.63;4839304;29;20266;-77
2022/05/11 00:56:00;;;;;;;11.90;7.85;;;;;;;12.86;100.00;101177.53;4823079;29;20041;-77
2022/05/11 00:58:40;;;;;;;13.00;7.38;;;;;;;12.87;100.00;101178.41;4853662;29;20045;-77
2022/05/11 01:01:08;;;;;;;12.10;7.93;;;;;;;12.86;100.00;101169.63;4839427;29;20061;-78
2022/05/11 01:03:44;;;;;;;11.88;8.90;;;;;;;12.87;100.00;101162.56;4854597;29;20061;-79
2022/05/11 01:06:13;;;;;;;14.55;8.18;;;;;;;12.86;100.00;101161.69;4866600;29;20044;-79
2022/05/11 01:08:50;;;;;;;12.38;8.18;;;;;;;12.87;100.00;101160.81;4857169;29;20063;-79
2022/05/11 01:11:19;;;;;;;12.70;7.70;;;;;;;12.87;100.00;101163.44;4803746;29;20353;-79
2022/05/11 01:13:51;;;;;;;12.60;8.20;;;;;;;12.87;100.00;101171.38;4838958;29;20117;-79
2022/05/11 01:16:24;;;;;;;13.50;7.72;;;;;;;12.88;100.00;101166.97;4825676;29;20272;-80
2022/05/11 01:18:55;;;;;;;13.40;7.55;;;;;;;12.90;100.00;101162.56;4862462;29;20060;-78
2022/05/11 01:21:35;;;;;;;11.85;7.88;;;;;;;12.90;100.00;101161.69;4852549;29;20447;-79
2022/05/11 01:24:47;;;;;;;10.75;7.13;;;;;;;12.88;100.00;101164.31;4865211;29;20057;-78
2022/05/11 01:27:36;;;;;;;16.23;8.07;;;;;;;12.91;100.00;101169.63;4795119;29;20170;-79
2022/05/11 01:30:17;;;;;;;12.55;8.23;;;;;;;12.91;100.00;101158.13;4812999;29;20061;-79
2022/05/11 01:32:49;;;;;;;12.63;8.10;;;;;;;12.90;100.00;101161.69;4838284;29;20057;-79
2022/05/11 01:35:47;;;;;;;12.88;8.80;;;;;;;12.90;100.00;101159.91;4855271;29;20053;-79
2022/05/11 01:38:22;;;;;;;13.15;8.25;;;;;;;12.91;100.00;101152.84;4845033;29;20061;-79
2022/05/11 01:40:53;;;;;;;14.80;8.25;;;;;;;12.93;100.00;101159.00;4853884;29;20048;-79
2022/05/11 01:43:27;;;;;;;9.90;7.60;;;;;;;12.92;100.00;101159.91;4818537;29;20265;-79
2022/05/11 01:45:56;;;;;;;12.95;8.73;;;;;;;12.90;100.00;101146.69;4840046;29;20048;-79
2022/05/11 01:48:25;;;;;;;14.77;8.48;;;;;;;12.92;100.00;101149.34;4859782;29;20240;-79
2022/05/11 01:50:55;;;;;;;13.07;8.15;;;;;;;12.90;100.00;101138.75;4869848;29;20049;-79
2022/05/11 01:53:24;;;;;;;13.55;8.90;;;;;;;12.92;100.00;101138.75;4850639;29;20443;-78
2022/05/11 01:55:53;;;;;;;14.00;7.10;;;;;;;12.92;100.00;101139.63;4853449;29;20045;-79
2022/05/11 01:58:23;;;;;;;13.27;8.60;;;;;;;12.92;100.00;101134.34;4835136;29;20049;-79
2022/05/11 02:00:53;;;;;;;12.35;7.97;;;;;;;12.94;100.00;101139.63;4838733;29;20064;-79
2022/05/11 02:03:21;;;;;;;9.20;7.40;;;;;;;12.94;100.00;101137.84;4848468;29;20053;-79
2022/05/11 02:08:38;;;;;;;17.25;9.70;;;;;;;12.94;100.00;101131.69;4855414;29;20053;-79
2022/05/11 02:11:07;;;;;;;12.98;9.13;;;;;;;12.94;100.00;101129.06;4836116;29;20053;-80
2022/05/11 02:13:36;;;;;;;12.35;8.55;;;;;;;12.92;100.00;101118.47;4833504;29;20057;-79
2022/05/11 02:16:05;;;;;;;14.65;8.15;;;;;;;12.92;100.00;101122.88;4853183;29;20046;-79
2022/05/11 02:18:34;;;;;;;14.38;9.20;;;;;;;12.91;100.00;101119.38;4821385;29;20057;-78
2022/05/11 02:21:02;;;;;;;13.30;8.32;;;;;;;12.91;100.00;101111.44;4849084;29;20053;-79
2022/05/11 02:23:31;;;;;;;13.82;7.85;;;;;;;12.89;100.00;101107.88;4854624;29;20332;-79
2022/05/11 02:26:00;;;;;;;10.45;6.68;;;;;;;12.88;100.00;101111.44;4828243;29;20041;-78
2022/05/11 02:28:28;;;;;;;12.73;7.10;;;;;;;12.87;100.00;101105.28;4835459;29;20451;-79
2022/05/11 02:31:04;;;;;;;9.43;6.55;;;;;;;12.87;100.00;101109.66;4850774;29;20057;-79
2022/05/11 02:33:32;;;;;;;9.73;7.82;;;;;;;12.86;100.00;101106.13;4839203;29;20049;-80
2022/05/11 02:36:02;;;;;;;11.90;7.25;;;;;;;12.86;100.00;101108.78;4866992;29;20409;-80
2022/05/11 02:38:35;;;;;;;9.95;7.45;;;;;;;12.85;100.00;101109.69;4853609;29;20236;-79
2022/05/11 02:41:04;;;;;;;10.68;6.85;;;;;;;12.85;100.00;101104.41;4836998;29;20048;-79
2022/05/11 02:43:33;;;;;;;10.57;7.32;;;;;;;12.85;100.00;101100.84;4824832;29;20292;-79
2022/05/11 02:46:01;;;;;;;9.32;7.00;;;;;;;12.85;100.00;101095.56;4852805;29;20053;-79
2022/05/11 02:48:32;;;;;;;9.77;6.50;;;;;;;12.86;100.00;101087.63;4842213;29;20112;-81
2022/05/11 02:51:03;;;;;;;11.55;6.82;;;;;;;12.86;100.00;101086.75;4852704;29;20056;-79
2022/05/11 02:53:32;;;;;;;7.35;6.50;;;;;;;12.87;100.00;101093.78;4852757;29;20686;-78
2022/05/11 02:56:01;;;;;;;10.45;7.18;;;;;;;12.86;100.00;101103.50;4853011;29;20052;-79
2022/05/11 02:58:34;;;;;;;10.25;7.13;;;;;;;12.86;100.00;101103.50;4849097;29;20652;-79
2022/05/11 03:01:04;;;;;;;12.77;6.65;;;;;;;12.86;100.00;101100.84;4857501;29;20045;-79
2022/05/11 03:03:35;;;;;;;11.70;6.75;;;;;;;12.87;100.00;101099.97;4819058;29;20169;-79
2022/05/11 03:06:07;;;;;;;7.70;6.28;;;;;;;12.88;100.00;101090.28;4842739;29;20041;-79
2022/05/11 03:08:38;;;;;;;11.20;6.85;;;;;;;12.87;100.00;101096.44;4853093;29;20042;-80
2022/05/11 03:11:08;;;;;;;10.07;7.53;;;;;;;12.87;100.00;101093.78;4854665;29;20053;-78
2022/05/11 03:13:37;;;;;;;9.82;6.28;;;;;;;12.87;100.00;101085.84;4857339;29;20050;-79
2022/05/11 03:16:06;;;;;;;10.50;6.60;;;;;;;12.87;100.00;101084.09;4836228;29;20519;-78
2022/05/11 03:18:37;;;;;;;8.85;6.57;;;;;;;12.88;100.00;101083.22;4836231;29;20096;-79
2022/05/11 03:21:06;;;;;;;10.95;6.78;;;;;;;12.88;100.00;101087.63;4836590;29;20041;-79
2022/05/11 03:23:34;;;;;;;11.80;7.28;;;;;;;12.87;100.00;101081.47;4856644;29;20045;-79
2022/05/11 03:26:02;;;;;;;8.80;6.45;;;;;;;12.88;100.00;101071.75;4840755;29;20391;-79
2022/05/11 03:28:31;;;;;;;8.80;6.25;;;;;;;12.87;100.00;101073.53;4836745;29;20052;-79
2022/05/11 03:31:00;;;;;;;9.93;6.65;;;;;;;12.89;100.00;101076.13;4819508;29;20042;-79
2022/05/11 03:36:16;;;;;;;11.65;7.13;;;;;;;12.87;100.00;101062.94;4853342;29;20049;-81
2022/05/11 03:38:45;;;;;;;11.27;7.00;;;;;;;12.86;100.00;101061.19;4872357;29;20048;-79
2022/05/11 03:41:18;;;;;;;11.93;7.53;;;;;;;12.87;100.00;101056.75;4853068;29;20084;-80
2022/05/11 03:43:46;;;;;;;10.15;6.65;;;;;;;12.86;100.00;101045.31;4857193;29;20046;-80
2022/05/11 03:46:15;;;;;;;10.20;7.13;;;;;;;12.88;100.00;101047.94;4835661;29;20049;-78
2022/05/11 03:48:44;;;;;;;11.13;7.22;;;;;;;12.88;100.00;101045.31;4857037;29;20048;-79
2022/05/11 03:51:13;;;;;;;8.57;6.57;;;;;;;12.87;100.00;101036.50;4828345;29;20053;-79
2022/05/11 03:53:41;;;;;;;9.93;7.03;;;;;;;12.87;100.00;101022.38;4857779;29;20056;-79
2022/05/11 03:56:10;;;;;;;8.88;6.47;;;;;;;12.87;100.00;101025.03;4863543;29;20543;-79
2022/05/11 03:58:38;;;;;;;12.50;6.22;;;;;;;12.87;100.00;101033.84;4855454;29;20074;-79
2022/05/11 04:01:07;;;;;;;9.63;5.78;;;;;;;12.88;100.00;101022.38;4853033;29;20042;-80
2022/05/11 04:03:36;;;;;;;11.43;6.32;;;;;;;12.89;100.00;101031.19;4829776;29;20053;-80
2022/05/11 04:06:05;;;;;;;7.90;5.47;;;;;;;12.90;100.00;101027.66;4840340;29;20045;-79
2022/05/11 04:08:34;;;;;;;11.32;5.82;;;;;;;12.90;100.00;101021.50;4807818;29;20439;-79
2022/05/11 04:11:02;;;;;;;9.32;5.18;;;;;;;12.91;100.00;101024.16;4855012;29;20052;-79
2022/05/11 04:13:31;;;;;;;9.40;6.47;;;;;;;12.90;100.00;101022.38;4854485;29;20092;-79
2022/05/11 04:15:59;;;;;;;8.70;6.53;;;;;;;12.91;100.00;101020.59;4855865;29;20057;-79
2022/05/11 04:18:28;;;;;;;8.30;5.15;;;;;;;12.90;100.00;101018.88;4829951;29;20213;-78
2022/05/11 04:20:57;;;;;;;7.10;5.68;;;;;;;12.90;100.00;101017.09;4838799;29;20053;-79
2022/05/11 04:23:25;;;;;;;8.55;6.00;;;;;;;12.91;100.00;101026.78;4819458;29;20058;-78
2022/05/11 04:25:55;;;;;;;9.02;5.63;;;;;;;12.94;100.00;101017.97;4858243;29;20054;-78
2022/05/11 04:28:24;;;;;;;7.70;5.82;;;;;;;12.96;100.00;101016.19;4870235;29;20046;-79
2022/05/11 04:31:06;;;;;;;14.00;5.85;;;;;;;12.97;100.00;101032.06;4841893;29;20053;-79
2022/05/11 04:33:35;;;;;;;10.57;5.63;;;;;;;12.98;100.00;101023.22;4821188;29;20053;-80
2022/05/11 04:36:05;;;;;;;7.57;5.60;;;;;;;13.00;100.00;101020.56;4848255;29;20049;-79
2022/05/11 04:38:35;;;;;;;7.30;5.07;;;;;;;13.01;100.00;101019.69;4850685;29;20054;-80
2022/05/11 04:41:04;;;;;;;9.32;5.55;;;;;;;13.02;100.00;101017.06;4839080;29;20061;-79
2022/05/11 04:43:32;;;;;;;10.15;6.05;;;;;;;13.04;100.00;101006.44;4872205;29;20265;-80
2022/05/11 04:46:01;;;;;;;9.75;5.90;;;;;;;13.06;100.00;101020.53;4839237;29;20408;-80
2022/05/11 04:48:29;;;;;;;6.47;5.88;;;;;;;13.06;100.00;101023.19;4823420;29;20044;-79
2022/05/11 04:51:01;;;;;;;13.48;6.13;;;;;;;13.08;100.00;101024.09;4824996;29;20042;-79
2022/05/11 04:53:30;;;;;;;9.63;5.68;;;;;;;13.10;100.00;101030.25;4849416;29;20079;-79
2022/05/11 04:55:59;;;;;;;15.13;6.95;;;;;;;13.10;100.00;101017.03;4856515;29;20053;-80
2022/05/11 04:58:27;;;;;;;12.75;6.05;;;;;;;13.10;100.00;101014.38;4854748;29;20045;-79
2022/05/11 05:00:56;;;;;;;10.40;5.68;;;;;;;13.13;100.00;101013.47;4826671;29;20060;-79
2022/05/11 05:03:25;;;;;;;19.27;6.20;;;;;;;13.15;100.00;101009.03;4870609;29;20033;-79
2022/05/11 05:05:53;;;;;;;10.52;6.07;;;;;;;13.16;100.00;101010.81;4827509;29;20064;-79
2022/05/11 05:08:23;;;;;;;9.48;6.65;;;;;;;13.18;100.00;101009.03;4828584;29;20769;-79
2022/05/11 05:10:54;;;;;;;8.77;5.72;;;;;;;13.18;100.00;101012.56;4811912;29;20448;-79
2022/05/11 05:13:23;;;;;;;10.32;5.60;;;;;;;13.21;100.00;101003.72;4822680;29;20065;-78
2022/05/11 05:15:57;;;;;;;11.73;5.90;;;;;;;13.22;100.00;101005.50;4854898;29;20046;-79
2022/05/11 05:18:25;;;;;;;9.20;5.55;;;;;;;13.23;100.00;101005.47;4851892;29;20030;-79
2022/05/11 05:20:55;;;;;;;12.95;5.72;;;;;;;13.25;100.00;101010.75;4837943;29;20049;-79
2022/05/11 05:23:24;;;;;;;8.65;4.95;;;;;;;13.26;100.00;101012.50;4848908;29;20277;-79
2022/05/11 05:25:52;;;;;;;11.57;5.70;;;;;;;13.26;100.00;101023.09;4833191;29;20053;-78
2022/05/11 05:31:11;;;;;;;7.60;5.05;;;;;;;13.26;100.00;101009.88;4845793;29;20068;-79
2022/05/11 05:33:39;;;;;;;15.38;5.05;;;;;;;13.27;100.00;101009.00;4854590;29;20056;-78
2022/05/11 05:36:09;;;;;;;11.38;5.07;;;;;;;13.27;100.00;101004.56;4826974;29;20056;-79
2022/05/11 05:38:39;;;;;;;12.23;5.90;;;;;;;13.30;100.00;100997.50;4859547;29;20054;-78
2022/05/11 05:41:10;;;;;;;10.25;5.85;;;;;;;13.31;100.00;100999.28;4849568;29;20054;-79
2022/05/11 05:43:38;;;;;;;7.68;5.15;;;;;;;13.32;100.00;101007.22;4852974;29;20392;-79
2022/05/11 05:46:07;;;;;;;11.43;5.47;;;;;;;13.36;100.00;100992.19;4836228;29;20061;-78
2022/05/11 05:48:35;;;;;;;8.52;4.63;;;;;;;13.37;100.00;100999.28;4850848;29;20068;-79
2022/05/11 05:51:07;;;;;;;11.85;5.35;;;;;;;13.39;100.00;101006.31;4834093;29;20045;-78
2022/05/11 05:53:36;;;;;;;10.00;5.10;;;;;;;13.41;100.00;100993.06;4822386;29;20056;-80
2022/05/11 05:56:06;;;;;;;11.43;5.43;;;;;;;13.44;100.00;100998.34;4829200;29;20064;-80
2022/05/11 05:58:38;;;;;;;10.18;4.57;;;;;;;13.49;100.00;100993.88;4837885;29;20069;-80
2022/05/11 06:01:08;;;;;;;;;;;;;;;13.49;100.00;100991.22;4819628;29;20048;-79
2022/05/11 06:03:38;;;;;;;10.40;4.88;;;;;;;13.54;100.00;100993.88;4852338;29;19940;-79
2022/05/11 06:06:08;;;;;;;10.80;4.97;;;;;;;13.58;100.00;100987.66;4875266;29;20041;-80
2022/05/11 06:08:37;;;;;;;11.98;5.47;;;;;;;13.62;100.00;100978.78;4830044;29;20052;-79
2022/05/11 06:11:07;;;;;;;12.10;5.05;;;;;;;13.67;100.00;100984.03;4842539;29;20053;-79
2022/05/11 06:13:37;;;;;;;6.93;4.30;;;;;;;13.71;100.00;100986.69;4838045;29;20029;-79
2022/05/11 06:16:12;;;;;;;12.07;5.72;;;;;;;13.75;100.00;100995.47;4824038;29;20381;-79
2022/05/11 06:18:42;;;;;;;13.65;5.22;;;;;;;13.79;100.00;100994.56;4844283;29;20061;-81
2022/05/11 06:21:13;;;;;;;9.43;4.97;;;;;;;13.82;100.00;100994.56;4844969;29;20056;-79
2022/05/11 06:23:41;;;;;;;10.48;4.75;;;;;;;13.83;100.00;100998.94;4834989;29;20053;-79
2022/05/11 06:26:10;;;;;;;11.32;5.90;;;;;;;13.85;100.00;100989.22;4835887;29;20045;-79
2022/05/11 06:28:40;;;;;;;15.90;5.68;;;;;;;13.88;100.00;100996.28;4850970;29;20054;-78
2022/05/11 06:31:19;;;;;;;11.27;5.32;;;;;;;13.90;100.00;100995.34;4835132;29;20241;-80
2022/05/11 06:33:51;;;;;;;11.43;4.80;;;;;;;13.95;100.00;100997.94;4855880;29;20479;-79
2022/05/11 06:36:23;;;;;;;12.23;4.80;;;;;;;13.97;100.00;100975.88;4845017;29;20053;-79
2022/05/11 06:38:53;;;;;;;11.73;4.88;;;;;;;14.07;100.00;100970.50;4792894;29;20049;-79
2022/05/11 06:41:25;;;;;;;11.00;4.97;;;;;;;14.17;100.00;100982.75;4842266;29;20052;-79
2022/05/11 06:43:54;;;;;;;12.85;4.63;;;;;;;14.27;100.00;100972.94;4848135;29;20295;-80
2022/05/11 06:46:23;;;;;;;12.00;6.63;;;;;;;14.35;100.00;100976.41;4833485;29;20061;-80
2022/05/11 06:48:56;;;;;;;12.25;5.35;;;;;;;14.45;100.00;100974.53;4858838;29;20302;-80
2022/05/11 06:51:25;;;;;;;12.43;5.28;;;;;;;14.50;100.00;100978.88;4859034;29;20045;-80
2022/05/11 06:59:33;;;;;;;16.65;5.38;;;;;;;14.61;100.00;100969.06;4852076;29;20041;-79
2022/05/11 07:02:03;;;;;;;12.73;5.45;;;;;;;14.64;100.00;100967.28;4850136;29;20034;-78
2022/05/11 07:04:33;;;;;;;13.13;5.45;;;;;;;14.65;100.00;100959.31;4848259;29;20041;-78
2022/05/11 07:07:05;;;;;;;7.53;4.47;;;;;;;14.66;100.00;100958.41;4853133;29;20046;-78
2022/05/11 07:09:34;;;;;;;8.32;5.03;;;;;;;14.70;100.00;100962.75;4825793;29;20065;-79
2022/05/11 07:12:19;;;;;;;11.98;5.72;;;;;;;14.73;100.00;100956.56;4831251;29;20317;-79
2022/05/11 07:14:54;;;;;;;11.35;5.10;;;;;;;14.75;100.00;100960.06;4844836;29;20147;-79
2022/05/11 07:17:31;;;;;;;9.85;5.22;;;;;;;14.78;100.00;100963.56;4842528;29;20054;-79
2022/05/11 07:20:15;;;;;;;13.05;5.93;;;;;;;14.82;100.00;100959.09;4839574;29;20157;-80
2022/05/11 07:22:44;;;;;;;15.25;6.07;;;;;;;14.85;100.00;100961.69;4850666;29;20283;-79
2022/05/11 07:25:16;;;;;;;8.48;5.18;;;;;;;14.90;100.00;100956.34;4822551;29;20058;-79
2022/05/11 07:27:46;;;;;;;15.45;5.93;;;;;;;14.93;100.00;100961.59;4817667;29;22631;-79
2022/05/11 07:30:18;;;;;;;17.25;5.32;;;;;;;15.01;100.00;100967.72;4860674;29;20053;-80
2022/05/11 07:32:47;;;;;;;15.65;5.65;;;;;;;15.07;100.00;100974.72;4845310;29;21449;-78
2022/05/11 07:35:15;;;;;;;15.48;5.32;;;;;;;15.11;100.00;100974.63;4849634;29;20053;-78
2022/05/11 07:37:47;;;;;;;10.02;5.18;;;;;;;15.13;100.00;100956.03;4848648;29;20162;-79
2022/05/11 07:40:18;;;;;;;14.77;5.10;;;;;;;15.15;100.00;100957.75;4844056;29;20527;-79
2022/05/11 07:42:48;;;;;;;13.30;5.18;;;;;;;15.18;100.00;100964.81;4846751;29;20072;-79
2022/05/11 07:45:17;;;;;;;12.50;5.75;;;;;;;15.20;100.00;100963.03;4857639;29;20053;-81
2022/05/11 07:47:46;;;;;;;11.05;5.38;;;;;;;15.25;100.00;100962.94;4843565;29;20179;-78
2022/05/11 07:50:14;;;;;;;10.13;5.70;;;;;;;15.32;100.00;100961.97;4833119;29;20053;-78
2022/05/11 07:52:45;;;;;;;14.38;5.13;;;;;;;15.42;100.00;100960.91;4822461;29;20046;-79
2022/05/11 07:55:16;;;;;;;19.15;5.75;;;;;;;15.57;100.00;100971.28;4854598;29;20057;-78
2022/05/11 08:00:32;;;;;;;16.63;5.93;;;;;;;15.78;100.00;100954.19;4842555;29;23170;-79
2022/05/11 08:03:00;;;;;;;14.57;5.65;;;;;;;15.84;100.00;100942.59;4829745;29;20076;-77
2022/05/11 08:05:30;;;;;;;15.93;5.80;;;;;;;15.88;100.00;100957.56;4827498;29;20052;-78
2022/05/11 08:08:03;;;;;;;15.73;5.97;;;;;;;15.93;100.00;100952.16;4836857;29;20049;-79
2022/05/11 08:10:39;;;;;;;12.60;5.50;;;;;;;16.07;100.00;100950.16;4835451;29;20064;-79
2022/05/11 08:13:08;;;;;;;13.27;6.07;;;;;;;16.12;100.00;100945.63;4826135;29;22484;-79
2022/05/11 08:15:42;;;;;;;12.80;5.25;;;;;;;16.21;100.00;100943.72;4859245;29;20053;-79
2022/05/11 08:18:11;;;;;;;14.38;5.63;;;;;;;16.28;100.00;100945.34;4860538;29;20049;-77
2022/05/11 08:20:42;;;;;;;15.90;5.95;;;;;;;16.37;100.00;100953.16;4812042;29;20056;-80
2022/05/11 08:23:17;;;;;;;16.63;6.05;;;;;;;16.48;100.00;100951.16;4836209;29;20092;-78
2022/05/11 08:25:46;;;;;;;10.63;4.97;;;;;;;16.57;100.00;100952.75;4844740;29;20046;-79
2022/05/11 08:28:21;;;;;;;16.67;5.80;;;;;;;16.70;100.00;100950.72;4822239;29;20046;-79
2022/05/11 08:33:42;;;;;;;13.90;5.07;;;;;;;16.89;100.00;100952.13;4847211;29;20488;-77
2022/05/11 08:36:30;;;;;;;12.20;4.57;;;;;;;16.95;100.00;100948.44;4841291;29;20041;-77
2022/05/11 08:39:00;;;;;;;11.30;4.57;;;;;;;17.01;100.00;100942.97;4835813;29;20060;-78
2022/05/11 08:41:45;;;;;;;14.30;4.97;;;;;;;17.13;100.00;100947.19;4839204;29;20400;-78
2022/05/11 08:44:15;;;;;;;12.73;4.68;;;;;;;17.25;100.00;100940.69;4826248;29;20552;-77
2022/05/11 08:46:47;;;;;;;8.82;4.40;;;;;;;17.28;100.00;100940.63;4842509;29;20531;-77
2022/05/11 08:49:29;;;;;;;13.30;4.10;;;;;;;17.26;100.00;100947.78;4826111;29;20930;-78
2022/05/11 08:52:00;;;;;;;12.52;4.75;;;;;;;17.20;100.00;100950.56;4822712;29;20408;-77
2022/05/11 08:54:54;;;;;;;12.43;3.75;;;;;;;17.08;96.80;100959.72;4836215;29;20535;-78
2022/05/11 08:57:25;;;;;;;14.82;3.58;;;;;;;16.98;98.26;100958.19;4836570;29;20096;-76
2022/05/11 08:59:59;;;;;;;15.20;4.38;;;;;;;16.93;98.35;100950.28;4804976;29;20554;-78
2022/05/11 09:02:43;;;;;;;9.90;3.75;;;;;;;16.92;98.52;100961.84;4845607;29;20050;-78
2022/05/11 09:05:20;;;;;;;12.27;4.53;;;;;;;16.91;98.91;100960.06;4838018;29;20131;-77
2022/05/11 09:07:52;;;;;;;16.42;3.63;;;;;;;16.90;99.00;100972.50;4823155;29;20064;-78
2022/05/11 09:10:33;;;;;;;15.45;3.75;;;;;;;16.95;98.31;100959.97;4834834;29;20049;-77
2022/05/11 09:13:05;;;;;;;14.43;3.95;;;;;;;17.05;98.87;100958.00;4837858;29;20276;-77
2022/05/11 09:15:47;;;;;;;10.60;4.03;;;;;;;17.17;98.05;100961.31;4825790;29;20052;-77
2022/05/11 09:18:16;;;;;;;12.82;3.78;;;;;;;17.24;96.82;100962.91;4826875;29;20304;-78
2022/05/11 09:20:52;;;;;;;9.55;3.95;;;;;;;17.25;95.78;100972.66;4852928;29;20045;-77
2022/05/11 09:23:31;;;;;;;10.23;3.67;;;;;;;17.23;95.68;100959.38;4840525;29;20042;-78
2022/05/11 09:26:07;;;;;;;18.38;4.30;;;;;;;17.23;95.46;100974.47;4835851;29;20049;-78
2022/05/11 09:28:38;;;;;;;13.20;3.70;;;;;;;17.24;95.20;100978.88;4848208;29;20052;-78
2022/05/11 09:31:12;;;;;;;9.38;3.10;;;;;;;17.28;94.52;100973.47;4813631;29;20042;-77
2022/05/11 09:33:57;;;;;;;12.60;3.20;;;;;;;17.37;93.97;100961.69;4821885;29;20033;-79
2022/05/11 09:37:03;;;;;;;11.55;3.63;;;;;;;17.57;93.36;100960.38;4837294;29;20041;-77
2022/05/11 09:39:33;;;;;;;11.05;3.15;;;;;;;17.79;93.35;100963.38;4844672;29;20050;-77
2022/05/11 09:42:15;;;;;;;13.75;3.67;;;;;;;17.98;91.39;100953.19;4834145;29;20049;-76
2022/05/11 09:44:46;;;;;;;9.50;2.88;;;;;;;18.15;90.24;100952.72;4859382;29;20050;-76
2022/05/11 09:47:33;;;;;;;10.63;3.28;;;;;;;18.45;89.96;100964.34;4838092;29;20274;-77
2022/05/11 09:50:21;;;;;;;10.18;3.38;;;;;;;18.62;88.26;100964.78;4846801;29;20049;-77
2022/05/11 09:52:51;;;;;;;8.30;3.17;;;;;;;18.69;87.46;100958.34;4837414;29;20068;-77
2022/05/11 09:55:28;;;;;;;;;;;;;;;18.72;82.14;100967.19;4839869;29;20042;-78
2022/05/11 09:58:08;;;;;;;11.60;3.22;;;;;;;18.78;86.13;100967.88;4835580;29;19931;-77
2022/05/11 10:00:42;;;;;;;5.53;2.42;;;;;;;18.79;84.32;100961.63;4831503;29;20534;-77
2022/05/11 10:03:27;;;;;;;6.90;2.13;;;;;;;18.83;83.99;100955.28;4848717;29;20045;-78
2022/05/11 10:05:56;;;;;;;9.30;2.50;;;;;;;18.82;83.46;100966.00;4850892;29;20700;-77
2022/05/11 10:08:29;;;;;;;11.68;2.60;;;;;;;18.70;83.00;100961.88;4839555;29;20046;-78
2022/05/11 10:11:16;;;;;;;8.88;3.33;;;;;;;18.61;83.82;100960.34;4835311;29;20680;-78
2022/05/11 10:21:49;;;;;;;13.20;2.40;;;;;;;18.51;82.73;100961.53;4841528;29;20045;-77
2022/05/11 10:22:54;;;;;;;13.15;2.83;;;;;;;18.30;80.72;100971.88;4838860;29;20527;-77
2022/05/11 10:25:41;;;;;;;9.27;2.53;;;;;;;18.26;81.59;100970.19;4844678;29;20073;-77
2022/05/11 10:28:37;;;;;;;11.45;2.47;;;;;;;18.38;80.71;100954.78;4853307;29;20075;-78
2022/05/11 10:31:40;;;;;;;9.32;2.60;;;;;;;18.63;82.50;100949.63;4842475;29;20351;-79
2022/05/11 10:35:15;;;;;;;8.13;2.60;;;;;;;18.96;81.66;100958.47;4853378;29;20427;-77
2022/05/11 10:37:58;;;;;;;15.93;3.72;;;;;;;19.07;81.05;100948.34;4848519;29;20053;-77
2022/05/11 10:40:53;;;;;;;9.90;2.83;;;;;;;19.19;80.58;100941.75;4841887;29;20045;-78
2022/05/11 10:43:46;;;;;;;8.90;2.30;;;;;;;19.34;78.44;100945.75;4809779;29;20049;-78
2022/05/11 10:46:34;;;;;;;8.98;2.72;;;;;;;19.52;78.17;100948.75;4840907;29;20667;-79
2022/05/11 10:49:34;;;;;;;10.23;2.58;;;;;;;19.63;73.56;100944.78;4828270;29;20046;-78
2022/05/11 10:52:08;;;;;;;7.35;2.85;;;;;;;19.78;75.91;100943.44;4855096;29;20407;-78
2022/05/11 10:55:14;;;;;;;7.03;2.30;;;;;;;19.85;68.00;100936.97;4825556;29;20084;-77
2022/05/11 10:58:10;;;;;;;10.20;2.75;;;;;;;19.81;72.31;100931.75;4835970;29;20169;-80
2022/05/11 11:01:09;;;;;;;8.25;2.40;;;;;;;19.82;72.94;100930.84;4831858;29;20053;-78
2022/05/11 11:03:41;;;;;;;18.60;3.03;;;;;;;19.76;73.81;100937.28;4816807;29;21233;-82
2022/05/11 11:09:25;;;;;;;8.68;2.65;;;;;;;19.63;72.61;100941.25;4865942;29;20064;-77
2022/05/11 11:12:18;;;;;;;5.75;2.60;;;;;;;19.67;68.86;100949.09;4850475;29;20054;-77
2022/05/11 11:14:52;;;;;;;29.27;3.42;;;;;;;19.71;71.54;100947.22;4837883;29;20045;-77
2022/05/11 11:17:25;;;;;;;9.38;2.65;;;;;;;19.68;71.21;100948.19;4837659;29;20547;-78
2022/05/11 11:19:58;;;;;;;10.70;2.85;;;;;;;19.59;71.23;100944.94;4816548;29;20415;-77
2022/05/11 11:22:27;;;;;;;13.85;2.97;;;;;;;19.55;72.11;100948.66;4841392;29;20049;-78
2022/05/11 11:25:12;;;;;;;7.75;2.85;;;;;;;19.49;71.94;100941.72;4819671;29;20041;-80
2022/05/11 11:28:11;;;;;;;8.20;2.38;;;;;;;19.56;69.74;100934.34;4846123;29;20321;-78
2022/05/11 11:31:02;;;;;;;7.10;2.25;;;;;;;19.43;72.10;100933.88;4861787;29;20049;-84
2022/05/11 11:33:34;;;;;;;12.25;2.53;;;;;;;19.34;71.36;100935.06;4863101;29;20053;-81
2022/05/11 11:36:04;;;;;;;12.77;3.15;;;;;;;19.33;71.89;100937.78;4840201;29;20471;-81
2022/05/11 11:38:39;;;;;;;9.43;2.60;;;;;;;19.44;72.50;100931.16;4846577;29;20053;-80
2022/05/11 11:41:12;;;;;;;8.35;2.42;;;;;;;19.54;71.09;100936.19;4855823;29;20068;-81
2022/05/11 11:43:50;;;;;;;11.35;3.10;;;;;;;19.66;71.77;100925.13;4872304;29;20045;-81
2022/05/11 11:46:40;;;;;;;12.05;2.58;;;;;;;19.83;71.02;100927.25;4836065;29;20476;-80
2022/05/11 11:49:11;;;;;;;15.07;2.70;;;;;;;19.76;69.68;100915.88;4835979;29;20065;-81
2022/05/11 11:52:10;;;;;;;7.88;2.20;;;;;;;19.70;70.75;100915.16;4832524;29;20060;-82
2022/05/11 11:54:43;;;;;;;11.50;3.40;;;;;;;19.86;71.54;100911.97;4846140;29;20129;-82
2022/05/11 11:57:21;;;;;;;9.73;2.60;;;;;;;19.90;68.58;100927.91;4847154;29;20045;-82
2022/05/11 11:59:57;;;;;;;11.98;4.32;;;;;;;19.86;71.28;100922.66;4857338;29;20141;-81
2022/05/11 12:02:36;;;;;;;11.85;2.85;;;;;;;19.78;72.08;100914.03;4822646;29;20057;-82
2022/05/11 12:05:33;;;;;;;11.15;2.53;;;;;;;19.74;71.59;100928.44;4845296;29;20049;-82
2022/05/11 12:16:46;;;;;;;8.35;2.63;;;;;;;19.17;72.51;100919.56;4823477;29;20058;-82
2022/05/11 12:19:15;;;;;;;10.85;2.95;;;;;;;19.04;72.88;100913.72;4838116;29;20060;-82
2022/05/11 12:22:13;;;;;;;13.00;2.50;;;;;;;18.87;72.24;100926.72;4839307;29;20166;-83
2022/05/11 12:24:46;;;;;;;14.13;2.95;;;;;;;18.84;74.19;100916.13;4837289;29;20304;-83